Rickmers Seoul — V7EI5 — position and weather

sailwx.info

Track history (hours):
 
Tides and Currents Weather Stations Pressure Air Temp Water Temp Dewpoint Dewpoint Depression Visibility Wind Speed Wind Dir Waves Ship Positions

Rickmers Seoul

Last reported at 2014-Jul-30 00:33 UTC. Time now 2014-Jul-30 11:07 UTC.
Position N 31°26' E 032°19'.

Length 192.9 m; beam 27.8 m; draft 11.2 m.

Type: Ship (hazmat cat A). MMSI: 538001809.

Date/timePositionNaut miles runAvg speedWind from/ knotsBaromVisibWave heightAir tempDewpointWater temp
2014-Jul-30 00:33N 31°26' E 032°19'1111.3
2014-Jul-29 23:33N 31°34' E 032°10'1414.2
2014-Jul-29 22:33N 31°44' E 031°58'1514.5
2014-Jul-29 21:33N 31°52' E 031°43'1514.6
2014-Jul-29 20:33N 31°59' E 031°28'1514.6
2014-Jul-29 19:33N 32°04' E 031°12'1614.8
2014-Jul-29 18:30N 32°09' E 030°54'1414.9
2014-Jul-29 17:33N 32°14' E 030°39'1514.8
2014-Jul-29 16:33N 32°20' E 030°23'1514.8
2014-Jul-29 15:33N 32°26' E 030°07'1614.5
2014-Jul-29 14:28N 32°33' E 029°50'1314.4
2014-Jul-29 13:33N 32°38' E 029°36'1614.2
2014-Jul-29 12:24N 32°45' E 029°18'2714.4
2014-Jul-29 10:32N 32°56' E 028°49'1413.9
2014-Jul-29 09:33N 33°01' E 028°34'5212.9
2014-Jul-29 05:30N 33°22' E 027°37'1112.0
2014-Jul-29 04:33N 33°27' E 027°25'  
2014-Jul-26 15:10N 39°22' E 014°16'711.4
2014-Jul-26 14:34N 39°26' E 014°09'1111.3
2014-Jul-26 13:34N 39°34' E 013°58'1111.2
2014-Jul-26 12:34N 39°41' E 013°47'1110.8
2014-Jul-26 11:33N 39°49' E 013°37'1611.1
2014-Jul-26 10:09N 39°59' E 013°22'2111.3
2014-Jul-26 08:18N 40°13' E 013°02'12611.6
2014-Jul-25 21:27N 41°38' E 010°59'2812.5
2014-Jul-25 19:13N 41°57' E 010°31'2612.1
2014-Jul-25 17:06N 42°14' E 010°05'611.8
2014-Jul-25 16:34N 42°18' E 009°59'2511.7
2014-Jul-25 14:26N 42°42' E 009°47'2311.2
2014-Jul-25 12:24N 43°03' E 009°38'911.0
2014-Jul-25 11:33N 43°12' E 009°33'1212.1
2014-Jul-25 10:34N 43°23' E 009°28'1212.3
2014-Jul-25 09:34N 43°35' E 009°22'1212.0
2014-Jul-25 08:33N 43°46' E 009°16'1211.7
2014-Jul-25 07:33N 43°57' E 009°10'1211.6
2014-Jul-25 06:34N 44°08' E 009°05'1211.8
2014-Jul-25 05:32N 44°19' E 008°58'6 6.6
2014-Jul-25 04:33N 44°24' E 008°53'0 0.0
2014-Jul-25 03:28N 44°24' E 008°53'0 0.0
2014-Jul-25 02:31N 44°24' E 008°53'0 0.0
2014-Jul-25 01:31N 44°24' E 008°53'0 0.0
2014-Jul-25 00:31N 44°24' E 008°53'0 0.0
2014-Jul-24 23:31N 44°24' E 008°53'0 0.0
2014-Jul-24 22:31N 44°24' E 008°53'0 0.0
2014-Jul-24 21:31N 44°24' E 008°53'0 0.0
2014-Jul-24 20:31N 44°24' E 008°53'0 0.0
2014-Jul-24 19:31N 44°24' E 008°53'0 0.0
2014-Jul-24 18:31N 44°24' E 008°53'0 0.0
2014-Jul-24 17:25N 44°24' E 008°53'0 0.0
2014-Jul-24 16:31N 44°24' E 008°53'0 0.0
2014-Jul-24 15:34N 44°24' E 008°53'3 3.2
2014-Jul-24 14:34N 44°23' E 008°57'5 5.1
2014-Jul-24 13:33N 44°18' E 008°58'1413.7
2014-Jul-24 12:33N 44°09' E 008°43'1514.6
2014-Jul-24 11:33N 43°60' E 008°28'5312.7
2014-Jul-24 07:25N 43°24' E 007°34'1416.3
2014-Jul-24 06:33N 43°14' E 007°20'1312.9
2014-Jul-24 05:33N 43°06' E 007°07'1211.9
2014-Jul-24 04:33N 42°58' E 006°55'1211.9
2014-Jul-24 03:33N 42°50' E 006°43'1212.2
2014-Jul-24 02:33N 42°41' E 006°31'1812.8
2014-Jul-24 01:11N 42°30' E 006°13'812.4
2014-Jul-24 00:31N 42°24' E 006°05'1111.4
2014-Jul-23 23:33N 42°17' E 005°54'1211.8
2014-Jul-23 22:33N 42°09' E 005°42'1212.0
2014-Jul-23 21:33N 42°01' E 005°30'1312.4
2014-Jul-23 20:32N 41°52' E 005°17'1212.4
2014-Jul-23 19:33N 41°44' E 005°05'1312.2
2014-Jul-23 18:31N 41°36' E 004°52'1212.2
2014-Jul-23 17:33N 41°28' E 004°41'1312.9
2014-Jul-23 16:33N 41°19' E 004°28'1313.2
2014-Jul-23 15:32N 41°10' E 004°15'1312.7
2014-Jul-23 14:32N 41°01' E 004°02'1812.5
2014-Jul-23 13:08N 40°50' E 003°45'1212.4
2014-Jul-23 12:11N 40°42' E 003°34'711.8
2014-Jul-23 11:33N 40°37' E 003°26'1212.2
2014-Jul-23 10:33N 40°29' E 003°15'1212.2
2014-Jul-23 09:33N 40°20' E 003°03'1212.4
2014-Jul-23 08:33N 40°11' E 002°52'1212.4
2014-Jul-23 07:33N 40°04' E 002°39'1312.7
2014-Jul-23 06:33N 39°55' E 002°26'1312.6
2014-Jul-23 05:33N 39°46' E 002°15'1212.3
2014-Jul-23 04:33N 39°39' E 002°03'1212.2
2014-Jul-23 03:33N 39°30' E 001°51'1212.1
2014-Jul-23 02:33N 39°22' E 001°39'1212.1
2014-Jul-23 01:33N 39°14' E 001°28'1212.4
2014-Jul-23 00:34N 39°06' E 001°16'1212.3
2014-Jul-22 23:33N 38°57' E 001°04'1312.3
2014-Jul-22 22:28N 38°47' E 000°53'1212.3
2014-Jul-22 21:29N 38°38' E 000°43'1112.0
2014-Jul-22 20:33N 38°30' E 000°33'2811.8
2014-Jul-22 18:11N 38°09' E 000°09'711.6
2014-Jul-22 17:33N 38°04' E 000°03'1212.0
2014-Jul-22 16:33N 37°55' W 000°07'1212.0
2014-Jul-22 15:33N 37°46' W 000°17'1212.0
2014-Jul-22 14:33N 37°36' W 000°27'1212.1
2014-Jul-22 13:30N 37°28' W 000°38'1212.2
2014-Jul-22 12:33N 37°20' W 000°49'1212.0
2014-Jul-22 11:33N 37°12' W 001°00'1312.3
2014-Jul-22 10:29N 37°04' W 001°13'1111.6
2014-Jul-22 09:33N 36°56' W 001°23'1211.8
2014-Jul-22 08:33N 36°48' W 001°34'2215.1
2014-Jul-22 07:08N 36°34' W 001°54'17012.6
2014-Jul-21 17:33N 35°58' W 005°20'14912.2
2014-Jul-21 05:18N 36°22' W 008°23'912.2
2014-Jul-21 04:33N 36°24' W 008°34'1612.0
2014-Jul-21 03:11N 36°29' W 008°53'2311.9
2014-Jul-21 01:13N 36°37' W 009°21'1212.6
2014-Jul-21 00:15N 36°45' W 009°32'912.3
2014-Jul-20 23:33N 36°54' W 009°35'2612.6
2014-Jul-20 21:31N 37°19' W 009°42'1312.9
2014-Jul-20 20:33N 37°31' W 009°46'1312.8
2014-Jul-20 19:33N 37°43' W 009°50'1312.7
2014-Jul-20 18:33N 37°56' W 009°53'1312.7
2014-Jul-20 17:33N 38°08' W 009°56'1513.0
2014-Jul-20 16:22N 38°23' W 010°01'  
Track history (hours):
 
Tides and Currents Weather Stations Pressure Air Temp Water Temp Dewpoint Dewpoint Depression Visibility Wind Speed Wind Dir Waves Ship Positions

Rickmers Seoul

Last reported at 2014-Jul-30 00:33 UTC. Time now 2014-Jul-30 11:07 UTC.
Position N 31°26' E 032°19'.

Length 192.9 m; beam 27.8 m; draft 11.2 m.

Type: Ship (hazmat cat A). MMSI: 538001809.

Date/timePositionNaut miles runAvg speedWind from/ knotsBaromVisibWave heightAir tempDewpointWater temp
2014-Jul-30 00:33N 31°26' E 032°19'1111.3
2014-Jul-29 23:33N 31°34' E 032°10'1414.2
2014-Jul-29 22:33N 31°44' E 031°58'1514.5
2014-Jul-29 21:33N 31°52' E 031°43'1514.6
2014-Jul-29 20:33N 31°59' E 031°28'1514.6
2014-Jul-29 19:33N 32°04' E 031°12'1614.8
2014-Jul-29 18:30N 32°09' E 030°54'1414.9
2014-Jul-29 17:33N 32°14' E 030°39'1514.8
2014-Jul-29 16:33N 32°20' E 030°23'1514.8
2014-Jul-29 15:33N 32°26' E 030°07'1614.5
2014-Jul-29 14:28N 32°33' E 029°50'1314.4
2014-Jul-29 13:33N 32°38' E 029°36'1614.2
2014-Jul-29 12:24N 32°45' E 029°18'2714.4
2014-Jul-29 10:32N 32°56' E 028°49'1413.9
2014-Jul-29 09:33N 33°01' E 028°34'5212.9
2014-Jul-29 05:30N 33°22' E 027°37'1112.0
2014-Jul-29 04:33N 33°27' E 027°25'  
2014-Jul-26 15:10N 39°22' E 014°16'711.4
2014-Jul-26 14:34N 39°26' E 014°09'1111.3
2014-Jul-26 13:34N 39°34' E 013°58'1111.2
2014-Jul-26 12:34N 39°41' E 013°47'1110.8
2014-Jul-26 11:33N 39°49' E 013°37'1611.1
2014-Jul-26 10:09N 39°59' E 013°22'2111.3
2014-Jul-26 08:18N 40°13' E 013°02'12611.6
2014-Jul-25 21:27N 41°38' E 010°59'2812.5
2014-Jul-25 19:13N 41°57' E 010°31'2612.1
2014-Jul-25 17:06N 42°14' E 010°05'611.8
2014-Jul-25 16:34N 42°18' E 009°59'2511.7
2014-Jul-25 14:26N 42°42' E 009°47'2311.2
2014-Jul-25 12:24N 43°03' E 009°38'911.0
2014-Jul-25 11:33N 43°12' E 009°33'1212.1
2014-Jul-25 10:34N 43°23' E 009°28'1212.3
2014-Jul-25 09:34N 43°35' E 009°22'1212.0
2014-Jul-25 08:33N 43°46' E 009°16'1211.7
2014-Jul-25 07:33N 43°57' E 009°10'1211.6
2014-Jul-25 06:34N 44°08' E 009°05'1211.8
2014-Jul-25 05:32N 44°19' E 008°58'6 6.6
2014-Jul-25 04:33N 44°24' E 008°53'0 0.0
2014-Jul-25 03:28N 44°24' E 008°53'0 0.0
2014-Jul-25 02:31N 44°24' E 008°53'0 0.0
2014-Jul-25 01:31N 44°24' E 008°53'0 0.0
2014-Jul-25 00:31N 44°24' E 008°53'0 0.0
2014-Jul-24 23:31N 44°24' E 008°53'0 0.0
2014-Jul-24 22:31N 44°24' E 008°53'0 0.0
2014-Jul-24 21:31N 44°24' E 008°53'0 0.0
2014-Jul-24 20:31N 44°24' E 008°53'0 0.0
2014-Jul-24 19:31N 44°24' E 008°53'0 0.0
2014-Jul-24 18:31N 44°24' E 008°53'0 0.0
2014-Jul-24 17:25N 44°24' E 008°53'0 0.0
2014-Jul-24 16:31N 44°24' E 008°53'0 0.0
2014-Jul-24 15:34N 44°24' E 008°53'3 3.2
2014-Jul-24 14:34N 44°23' E 008°57'5 5.1
2014-Jul-24 13:33N 44°18' E 008°58'1413.7
2014-Jul-24 12:33N 44°09' E 008°43'1514.6
2014-Jul-24 11:33N 43°60' E 008°28'5312.7
2014-Jul-24 07:25N 43°24' E 007°34'1416.3
2014-Jul-24 06:33N 43°14' E 007°20'1312.9
2014-Jul-24 05:33N 43°06' E 007°07'1211.9
2014-Jul-24 04:33N 42°58' E 006°55'1211.9
2014-Jul-24 03:33N 42°50' E 006°43'1212.2
2014-Jul-24 02:33N 42°41' E 006°31'1812.8
2014-Jul-24 01:11N 42°30' E 006°13'812.4
2014-Jul-24 00:31N 42°24' E 006°05'1111.4
2014-Jul-23 23:33N 42°17' E 005°54'1211.8
2014-Jul-23 22:33N 42°09' E 005°42'1212.0
2014-Jul-23 21:33N 42°01' E 005°30'1312.4
2014-Jul-23 20:32N 41°52' E 005°17'1212.4
2014-Jul-23 19:33N 41°44' E 005°05'1312.2
2014-Jul-23 18:31N 41°36' E 004°52'1212.2
2014-Jul-23 17:33N 41°28' E 004°41'1312.9
2014-Jul-23 16:33N 41°19' E 004°28'1313.2
2014-Jul-23 15:32N 41°10' E 004°15'1312.7
2014-Jul-23 14:32N 41°01' E 004°02'1812.5
2014-Jul-23 13:08N 40°50' E 003°45'1212.4
2014-Jul-23 12:11N 40°42' E 003°34'711.8
2014-Jul-23 11:33N 40°37' E 003°26'1212.2
2014-Jul-23 10:33N 40°29' E 003°15'1212.2
2014-Jul-23 09:33N 40°20' E 003°03'1212.4
2014-Jul-23 08:33N 40°11' E 002°52'1212.4
2014-Jul-23 07:33N 40°04' E 002°39'1312.7
2014-Jul-23 06:33N 39°55' E 002°26'1312.6
2014-Jul-23 05:33N 39°46' E 002°15'1212.3
2014-Jul-23 04:33N 39°39' E 002°03'1212.2
2014-Jul-23 03:33N 39°30' E 001°51'1212.1
2014-Jul-23 02:33N 39°22' E 001°39'1212.1
2014-Jul-23 01:33N 39°14' E 001°28'1212.4
2014-Jul-23 00:34N 39°06' E 001°16'1212.3
2014-Jul-22 23:33N 38°57' E 001°04'1312.3
2014-Jul-22 22:28N 38°47' E 000°53'1212.3
2014-Jul-22 21:29N 38°38' E 000°43'1112.0
2014-Jul-22 20:33N 38°30' E 000°33'2811.8
2014-Jul-22 18:11N 38°09' E 000°09'711.6
2014-Jul-22 17:33N 38°04' E 000°03'1212.0
2014-Jul-22 16:33N 37°55' W 000°07'1212.0
2014-Jul-22 15:33N 37°46' W 000°17'1212.0
2014-Jul-22 14:33N 37°36' W 000°27'1212.1
2014-Jul-22 13:30N 37°28' W 000°38'1212.2
2014-Jul-22 12:33N 37°20' W 000°49'1212.0
2014-Jul-22 11:33N 37°12' W 001°00'1312.3
2014-Jul-22 10:29N 37°04' W 001°13'1111.6
2014-Jul-22 09:33N 36°56' W 001°23'1211.8
2014-Jul-22 08:33N 36°48' W 001°34'2215.1
2014-Jul-22 07:08N 36°34' W 001°54'17012.6
2014-Jul-21 17:33N 35°58' W 005°20'14912.2
2014-Jul-21 05:18N 36°22' W 008°23'912.2
2014-Jul-21 04:33N 36°24' W 008°34'1612.0
2014-Jul-21 03:11N 36°29' W 008°53'2311.9
2014-Jul-21 01:13N 36°37' W 009°21'1212.6
2014-Jul-21 00:15N 36°45' W 009°32'912.3
2014-Jul-20 23:33N 36°54' W 009°35'2612.6
2014-Jul-20 21:31N 37°19' W 009°42'1312.9
2014-Jul-20 20:33N 37°31' W 009°46'1312.8
2014-Jul-20 19:33N 37°43' W 009°50'1312.7
2014-Jul-20 18:33N 37°56' W 009°53'1312.7
2014-Jul-20 17:33N 38°08' W 009°56'1513.0
2014-Jul-20 16:22N 38°23' W 010°01'  

Dump ship's entire track history